createdAt,value
2017-12-02T00:02:02.187Z,3.11
2017-12-02T00:04:31.323Z,3.06
2017-12-02T00:07:00.424Z,3.01
2017-12-02T00:09:29.879Z,2.95
2017-12-02T00:11:59.018Z,2.94
2017-12-02T00:14:28.095Z,2.85
2017-12-02T00:16:57.178Z,2.87
2017-12-02T00:19:27.134Z,2.90
2017-12-02T00:21:56.258Z,2.83
2017-12-02T00:24:25.348Z,2.75
2017-12-02T00:26:54.531Z,2.77
2017-12-02T00:29:24.442Z,2.75
2017-12-02T00:31:53.704Z,2.76
2017-12-02T00:34:23.680Z,2.74
2017-12-02T00:36:52.786Z,2.72
2017-12-02T00:39:21.930Z,2.71
2017-12-02T00:41:52.039Z,2.66
2017-12-02T00:44:21.199Z,2.63
2017-12-02T00:46:50.318Z,2.55
2017-12-02T00:49:20.579Z,2.48
2017-12-02T00:51:49.889Z,2.43
2017-12-02T00:54:19.698Z,2.37
2017-12-02T00:56:49.167Z,2.32
2017-12-02T00:59:19.139Z,2.32
2017-12-02T01:01:48.397Z,2.31
2017-12-02T01:04:20.274Z,2.27
2017-12-02T01:06:51.524Z,2.26
2017-12-02T01:09:21.678Z,2.24
2017-12-02T01:11:50.906Z,2.21
2017-12-02T01:14:20.574Z,2.18
2017-12-02T01:16:50.777Z,2.19
2017-12-02T01:19:20.046Z,2.24
2017-12-02T01:21:50.013Z,2.26
2017-12-02T01:24:19.805Z,2.22
2017-12-02T01:26:49.098Z,2.21
2017-12-02T01:29:18.433Z,2.15
2017-12-02T01:31:48.004Z,2.03
2017-12-02T01:34:17.196Z,1.96
2017-12-02T01:36:47.008Z,1.93
2017-12-02T01:39:16.260Z,1.91
2017-12-02T01:41:45.450Z,1.88
2017-12-02T01:44:14.612Z,1.89
2017-12-02T01:46:43.927Z,1.81
2017-12-02T01:49:13.128Z,1.75
2017-12-02T01:51:42.307Z,1.67
2017-12-02T01:54:12.021Z,1.63
2017-12-02T01:56:41.254Z,1.59
2017-12-02T01:59:10.417Z,1.60
2017-12-02T02:01:39.686Z,1.56
2017-12-02T02:04:09.605Z,1.62
2017-12-02T02:06:38.831Z,1.58
2017-12-02T02:09:07.968Z,1.58
2017-12-02T02:11:37.088Z,1.58
2017-12-02T02:14:06.192Z,1.62
2017-12-02T02:16:35.353Z,1.66
2017-12-02T02:19:04.502Z,1.60
2017-12-02T02:21:34.364Z,1.67
2017-12-02T02:24:03.588Z,1.76
2017-12-02T02:26:32.714Z,1.81
2017-12-02T02:29:01.927Z,1.82
2017-12-02T02:31:31.056Z,1.74
2017-12-02T02:34:00.962Z,1.73
2017-12-02T02:36:30.120Z,1.75
2017-12-02T02:38:59.572Z,1.74
2017-12-02T02:41:29.715Z,1.59
2017-12-02T02:43:58.847Z,1.49
2017-12-02T02:46:29.139Z,1.48
2017-12-02T02:48:58.255Z,1.54
2017-12-02T02:51:27.391Z,1.56
2017-12-02T02:53:57.398Z,1.59
2017-12-02T02:56:26.543Z,1.55
2017-12-02T02:58:56.423Z,1.61
2017-12-02T03:01:25.609Z,1.59
2017-12-02T03:03:54.782Z,1.64
2017-12-02T03:06:24.673Z,1.71
2017-12-02T03:08:53.820Z,1.65
2017-12-02T03:11:23.014Z,1.75
2017-12-02T03:13:52.166Z,1.82
2017-12-02T03:16:21.685Z,1.94
2017-12-02T03:18:50.802Z,2.05
2017-12-02T03:21:20.016Z,2.01
2017-12-02T03:23:50.171Z,2.06
2017-12-02T03:26:19.455Z,1.99
2017-12-02T03:28:48.623Z,1.97
2017-12-02T03:31:19.459Z,1.85
2017-12-02T03:33:48.656Z,1.81
2017-12-02T03:36:17.825Z,1.87
2017-12-02T03:38:47.764Z,1.83
2017-12-02T03:41:17.070Z,1.91
2017-12-02T03:43:46.471Z,1.96
2017-12-02T03:46:16.902Z,1.97
2017-12-02T03:48:46.403Z,1.89
2017-12-02T03:51:15.909Z,1.87
2017-12-02T03:53:46.111Z,1.88
2017-12-02T03:56:17.013Z,1.82
2017-12-02T03:58:46.649Z,1.79
2017-12-02T04:01:15.949Z,1.80
2017-12-02T04:03:46.072Z,1.70
2017-12-02T04:06:15.479Z,1.57
2017-12-02T04:08:45.592Z,1.50
2017-12-02T04:11:14.899Z,1.41
2017-12-02T04:13:44.526Z,1.36
2017-12-02T04:16:13.860Z,1.27
2017-12-02T04:18:49.876Z,1.24
2017-12-02T04:21:19.041Z,1.20
2017-12-02T04:23:48.360Z,1.14
2017-12-02T04:26:17.800Z,1.08
2017-12-02T04:28:47.754Z,1.07
2017-12-02T04:31:17.121Z,1.06
2017-12-02T04:33:47.175Z,1.08
2017-12-02T04:36:16.406Z,1.05
2017-12-02T04:38:45.733Z,1.02
2017-12-02T04:41:16.155Z,0.93
2017-12-02T04:43:45.399Z,0.93
2017-12-02T04:46:14.598Z,0.95
2017-12-02T04:48:43.919Z,0.95
2017-12-02T04:51:13.096Z,0.99
2017-12-02T04:53:42.379Z,1.00
2017-12-02T04:56:12.033Z,0.97
2017-12-02T04:58:41.286Z,0.98
2017-12-02T05:01:10.501Z,1.05
2017-12-02T05:03:40.148Z,1.05
2017-12-02T05:06:09.543Z,1.05
2017-12-02T05:08:38.856Z,1.05
2017-12-02T05:11:08.142Z,1.12
2017-12-02T05:13:37.346Z,1.13
2017-12-02T05:16:06.495Z,1.15
2017-12-02T05:18:35.821Z,1.17
2017-12-02T05:21:04.959Z,1.19
2017-12-02T05:23:34.096Z,1.26
2017-12-02T05:26:03.260Z,1.25
2017-12-02T05:28:33.171Z,1.17
2017-12-02T05:31:02.325Z,1.17
2017-12-02T05:33:31.548Z,1.13
2017-12-02T05:36:00.749Z,1.16
2017-12-02T05:38:29.925Z,1.10
2017-12-02T05:40:59.157Z,1.15
2017-12-02T05:43:28.289Z,1.20
2017-12-02T05:45:57.488Z,1.18
2017-12-02T05:48:26.657Z,1.20
2017-12-02T05:50:55.789Z,1.22
2017-12-02T05:53:25.723Z,1.20
2017-12-02T05:55:54.889Z,1.17
2017-12-02T05:58:24.043Z,1.04
2017-12-02T06:00:53.324Z,1.04
2017-12-02T06:03:24.279Z,0.99
2017-12-02T06:05:53.514Z,0.95
2017-12-02T06:08:23.647Z,0.89
2017-12-02T06:10:53.870Z,0.93
2017-12-02T06:13:23.846Z,0.99
2017-12-02T06:15:53.068Z,1.00
2017-12-02T06:18:22.626Z,0.94
2017-12-02T06:20:51.851Z,0.89
2017-12-02T06:23:21.864Z,0.93
2017-12-02T06:25:51.214Z,0.96
2017-12-02T06:28:20.416Z,0.90
2017-12-02T06:30:49.714Z,0.93
2017-12-02T06:33:19.764Z,0.88
2017-12-02T06:35:48.943Z,0.88
2017-12-02T06:38:18.172Z,0.83
2017-12-02T06:40:48.236Z,0.81
2017-12-02T06:43:17.414Z,0.87
2017-12-02T06:45:47.341Z,0.92
2017-12-02T06:48:17.357Z,0.94
2017-12-02T06:50:47.348Z,0.94
2017-12-02T06:53:16.536Z,0.88
2017-12-02T06:55:46.131Z,0.90
2017-12-02T06:58:15.390Z,0.86
2017-12-02T07:00:44.693Z,0.79
2017-12-02T07:03:14.662Z,0.82
2017-12-02T07:05:43.988Z,0.88
2017-12-02T07:08:14.123Z,0.89
2017-12-02T07:10:44.033Z,0.85
2017-12-02T07:13:13.438Z,0.84
2017-12-02T07:15:42.693Z,0.82
2017-12-02T07:18:12.139Z,0.81
2017-12-02T07:20:41.756Z,0.82
2017-12-02T07:23:11.047Z,0.82
2017-12-02T07:25:40.607Z,0.83
2017-12-02T07:28:09.806Z,0.83
2017-12-02T07:30:38.930Z,0.83
2017-12-02T07:33:08.761Z,0.84
2017-12-02T07:35:37.929Z,0.86
2017-12-02T07:38:07.666Z,0.94
2017-12-02T07:40:37.203Z,1.07
2017-12-02T07:43:06.345Z,1.09
2017-12-02T07:45:36.239Z,1.14
2017-12-02T07:48:05.403Z,1.29
2017-12-02T07:50:34.562Z,1.34
2017-12-02T07:53:04.744Z,1.41
2017-12-02T07:55:34.719Z,1.49
2017-12-02T07:58:03.907Z,1.54
2017-12-02T08:00:33.033Z,1.65
2017-12-02T08:03:02.228Z,1.68
2017-12-02T08:05:31.366Z,1.81
2017-12-02T08:08:01.179Z,1.78
2017-12-02T08:10:31.423Z,1.82
2017-12-02T08:13:00.631Z,1.84
2017-12-02T08:15:29.858Z,1.82
2017-12-02T08:17:59.183Z,1.83
2017-12-02T08:20:28.322Z,1.86
2017-12-02T08:22:57.485Z,1.85
2017-12-02T08:25:26.620Z,1.86
2017-12-02T08:27:55.763Z,1.89
2017-12-02T08:30:25.671Z,1.91
2017-12-02T08:32:54.826Z,1.96
2017-12-02T08:35:23.970Z,2.06
2017-12-02T08:37:53.089Z,2.16
2017-12-02T08:40:23.798Z,2.13
2017-12-02T08:42:52.939Z,2.23
2017-12-02T08:45:22.138Z,2.21
2017-12-02T08:47:52.071Z,2.21
2017-12-02T08:50:22.147Z,2.22
2017-12-02T08:52:52.095Z,2.26
2017-12-02T08:55:21.369Z,2.31
2017-12-02T08:57:50.962Z,2.33
2017-12-02T09:00:20.139Z,2.34
2017-12-02T09:02:49.537Z,2.33
2017-12-02T09:05:19.549Z,2.37
2017-12-02T09:07:48.749Z,2.39
2017-12-02T09:10:19.032Z,2.42
2017-12-02T09:12:48.274Z,2.48
2017-12-02T09:15:17.548Z,2.58
2017-12-02T09:17:47.568Z,2.69
2017-12-02T09:20:16.691Z,2.86
2017-12-02T09:22:46.706Z,2.85
2017-12-02T09:25:16.007Z,2.98
2017-12-02T09:27:46.076Z,3.08
2017-12-02T09:30:15.313Z,3.21
2017-12-02T09:32:44.595Z,3.17
2017-12-02T09:35:13.774Z,3.17
2017-12-02T09:37:43.734Z,3.23
2017-12-02T09:40:13.032Z,3.29
2017-12-02T09:42:42.360Z,3.34
2017-12-02T09:45:12.551Z,3.34
2017-12-02T09:47:41.971Z,3.43
2017-12-02T09:50:11.340Z,3.51
2017-12-02T09:52:40.585Z,3.52
2017-12-02T09:55:10.763Z,3.55
2017-12-02T09:57:39.994Z,3.63
2017-12-02T10:00:09.391Z,3.62
2017-12-02T10:02:38.638Z,3.47
2017-12-02T10:05:07.783Z,3.57
2017-12-02T10:07:36.876Z,3.62
2017-12-02T10:10:06.597Z,3.72
2017-12-02T10:12:35.735Z,3.71
2017-12-02T10:15:04.855Z,3.67
2017-12-02T10:17:35.262Z,3.53
2017-12-02T10:20:04.405Z,3.58
2017-12-02T10:22:33.550Z,3.46
2017-12-02T10:25:02.793Z,3.39
2017-12-02T10:27:31.947Z,3.32
2017-12-02T10:30:01.060Z,3.36
2017-12-02T10:32:30.218Z,3.37
2017-12-02T10:35:00.906Z,3.34
2017-12-02T10:37:30.058Z,3.32
2017-12-02T10:39:59.463Z,3.27
2017-12-02T10:42:28.788Z,3.27
2017-12-02T10:44:58.004Z,3.27
2017-12-02T10:47:28.876Z,3.32
2017-12-02T10:49:58.017Z,3.38
2017-12-02T10:52:27.160Z,3.37
2017-12-02T10:54:57.738Z,3.27
2017-12-02T10:57:27.655Z,3.23
2017-12-02T10:59:56.751Z,3.25
2017-12-02T11:02:26.366Z,3.24
2017-12-02T11:04:56.705Z,3.26
2017-12-02T11:07:26.079Z,3.29
2017-12-02T11:10:05.204Z,3.37
2017-12-02T11:12:34.372Z,3.39
2017-12-02T11:15:03.947Z,3.47
2017-12-02T11:17:33.064Z,3.38
2017-12-02T11:20:03.387Z,3.45
2017-12-02T11:22:32.686Z,3.47
2017-12-02T11:25:02.482Z,3.46
2017-12-02T11:27:31.655Z,3.53
2017-12-02T11:30:01.567Z,3.54
2017-12-02T11:32:30.793Z,3.55
2017-12-02T11:35:00.734Z,3.47
2017-12-02T11:37:30.679Z,3.40
2017-12-02T11:39:59.887Z,3.37
2017-12-02T11:42:29.073Z,3.34
2017-12-02T11:44:58.307Z,3.43
2017-12-02T11:47:28.302Z,3.46
2017-12-02T11:49:57.759Z,3.44
2017-12-02T11:52:27.167Z,3.44
2017-12-02T11:54:57.032Z,3.50
2017-12-02T11:57:26.178Z,3.46
2017-12-02T11:59:55.316Z,3.45
2017-12-02T12:02:25.256Z,3.39
2017-12-02T12:04:55.863Z,3.41
2017-12-02T12:07:25.147Z,3.49
2017-12-02T12:09:54.464Z,3.51
2017-12-02T12:12:23.658Z,3.50
2017-12-02T12:14:52.968Z,3.46
2017-12-02T12:17:22.741Z,3.45
2017-12-02T12:19:51.950Z,3.43
2017-12-02T12:22:21.110Z,3.36
2017-12-02T12:24:50.544Z,3.39
2017-12-02T12:27:20.428Z,3.47
2017-12-02T12:29:50.798Z,3.52
2017-12-02T12:32:19.974Z,3.62
2017-12-02T12:34:49.119Z,3.64
2017-12-02T12:37:19.080Z,3.66
2017-12-02T12:39:48.263Z,3.66
2017-12-02T12:42:18.384Z,3.67
2017-12-02T12:44:48.032Z,3.68
2017-12-02T12:47:17.224Z,3.60
2017-12-02T12:49:46.453Z,3.54
2017-12-02T12:52:15.667Z,3.55
2017-12-02T12:54:46.849Z,3.53
2017-12-02T12:57:16.148Z,3.45
2017-12-02T12:59:45.442Z,3.46
2017-12-02T13:02:17.298Z,3.36
2017-12-02T13:04:47.730Z,3.31
2017-12-02T13:07:16.859Z,3.16
2017-12-02T13:09:45.991Z,3.17
2017-12-02T13:12:20.252Z,3.23
2017-12-02T13:14:49.449Z,3.28
2017-12-02T13:17:22.122Z,3.29
2017-12-02T13:19:53.024Z,3.24
2017-12-02T13:22:23.091Z,3.24
2017-12-02T13:24:52.569Z,3.20
2017-12-02T13:27:21.705Z,3.21
2017-12-02T13:29:51.940Z,3.20
2017-12-02T13:32:21.066Z,3.13
2017-12-02T13:34:51.078Z,3.10
2017-12-02T13:37:20.635Z,3.07
2017-12-02T13:39:53.668Z,2.97
2017-12-02T13:42:23.605Z,2.99
2017-12-02T13:44:54.358Z,2.98
2017-12-02T13:47:23.495Z,2.91
2017-12-02T13:49:52.919Z,2.89
2017-12-02T13:52:22.196Z,2.87
2017-12-02T13:54:52.689Z,2.89
2017-12-02T13:57:22.908Z,2.95
2017-12-02T13:59:52.826Z,2.99
2017-12-02T14:02:22.365Z,2.99
2017-12-02T14:04:52.058Z,2.96
2017-12-02T14:07:21.337Z,2.81
2017-12-02T14:09:50.941Z,2.83
2017-12-02T14:12:20.643Z,2.79
2017-12-02T14:14:50.112Z,2.74
2017-12-02T14:17:19.815Z,2.73
2017-12-02T14:19:49.094Z,2.76
2017-12-02T14:22:19.113Z,2.74
2017-12-02T14:24:48.279Z,2.69
2017-12-02T14:27:17.906Z,2.65
2017-12-02T14:29:47.890Z,2.62
2017-12-02T14:32:17.055Z,2.63
2017-12-02T14:34:47.023Z,2.62
2017-12-02T14:37:17.885Z,2.58
2017-12-02T14:39:48.116Z,2.58
2017-12-02T14:42:17.651Z,2.62
2017-12-02T14:44:46.910Z,2.66
2017-12-02T14:47:18.871Z,2.67
2017-12-02T14:49:48.020Z,2.76
2017-12-02T14:52:17.275Z,2.72
2017-12-02T14:54:46.627Z,2.68
2017-12-02T14:57:16.744Z,2.63
2017-12-02T14:59:46.339Z,2.62
2017-12-02T15:02:15.604Z,2.59
2017-12-02T15:04:44.800Z,2.51
2017-12-02T15:07:14.034Z,2.52
2017-12-02T15:09:44.170Z,2.48
2017-12-02T15:12:13.408Z,2.53
2017-12-02T15:14:42.768Z,2.55
2017-12-02T15:17:13.113Z,2.51
2017-12-02T15:19:43.397Z,2.54
2017-12-02T15:22:12.734Z,2.57
2017-12-02T15:24:42.097Z,2.57
2017-12-02T15:27:11.327Z,2.58
2017-12-02T15:29:40.963Z,2.55
2017-12-02T15:32:10.861Z,2.52
2017-12-02T15:34:40.861Z,2.57
2017-12-02T15:37:10.152Z,2.56
2017-12-02T15:39:40.703Z,2.59
2017-12-02T15:42:10.292Z,2.66
2017-12-02T15:44:39.575Z,2.63
2017-12-02T15:47:09.659Z,2.64
2017-12-02T15:49:38.800Z,2.60
2017-12-02T15:52:08.070Z,2.57
2017-12-02T15:54:38.935Z,2.54
2017-12-02T15:57:12.050Z,2.56
2017-12-02T15:59:44.026Z,2.60
2017-12-02T16:02:16.629Z,2.61
2017-12-02T16:04:49.726Z,2.59
2017-12-02T16:07:21.186Z,2.60
2017-12-02T16:09:50.723Z,2.61
2017-12-02T16:12:20.342Z,2.62
2017-12-02T16:14:49.657Z,2.61
2017-12-02T16:17:19.037Z,2.58
2017-12-02T16:19:48.496Z,2.59
2017-12-02T16:22:17.760Z,2.60
2017-12-02T16:24:47.224Z,2.59
2017-12-02T16:27:16.568Z,2.60
2017-12-02T16:29:45.923Z,2.57
2017-12-02T16:32:20.136Z,2.58
2017-12-02T16:34:49.650Z,2.58
2017-12-02T16:37:20.086Z,2.62
2017-12-02T16:39:49.783Z,2.64
2017-12-02T16:42:20.923Z,2.65
2017-12-02T16:44:51.159Z,2.68
2017-12-02T16:47:20.807Z,2.67
2017-12-02T16:49:50.182Z,2.69
2017-12-02T16:52:21.875Z,2.71
2017-12-02T16:54:51.208Z,2.69
2017-12-02T16:57:21.035Z,2.68
2017-12-02T16:59:50.260Z,2.71
2017-12-02T17:02:19.830Z,2.73
2017-12-02T17:04:49.775Z,2.74
2017-12-02T17:07:19.145Z,2.76
2017-12-02T17:09:49.412Z,2.81
2017-12-02T17:12:20.177Z,2.84
2017-12-02T17:14:50.764Z,2.86
2017-12-02T17:17:20.506Z,2.83
2017-12-02T17:19:56.835Z,2.84
2017-12-02T17:22:26.911Z,2.78
2017-12-02T17:24:57.452Z,2.81
2017-12-02T17:27:27.369Z,2.74
2017-12-02T17:29:56.637Z,2.71
2017-12-02T17:32:29.209Z,2.70
2017-12-02T17:34:58.611Z,2.71
2017-12-02T17:37:27.739Z,2.73
2017-12-02T17:39:57.512Z,2.73
2017-12-02T17:42:26.783Z,2.79
2017-12-02T17:44:56.386Z,2.79
2017-12-02T17:47:26.055Z,2.85
2017-12-02T17:49:56.714Z,2.89
2017-12-02T17:52:26.791Z,2.93
2017-12-02T17:55:04.901Z,2.91
2017-12-02T17:57:34.457Z,2.89
2017-12-02T18:00:06.514Z,2.87
2017-12-02T18:02:35.886Z,2.88
2017-12-02T18:05:05.914Z,2.88
2017-12-02T18:07:35.349Z,2.78
2017-12-02T18:10:08.788Z,2.77
2017-12-02T18:12:38.721Z,2.78
2017-12-02T18:15:08.393Z,2.80
2017-12-02T18:17:38.177Z,2.79
2017-12-02T18:20:07.976Z,2.77
2017-12-02T18:22:37.195Z,2.80
2017-12-02T18:25:06.495Z,2.78
2017-12-02T18:27:35.716Z,2.80
2017-12-02T18:30:04.836Z,2.83
2017-12-02T18:32:34.007Z,2.87
2017-12-02T18:35:03.123Z,2.92
2017-12-02T18:37:32.400Z,3.00
2017-12-02T18:40:01.572Z,3.02
2017-12-02T18:42:32.016Z,3.08
2017-12-02T18:45:01.181Z,3.08
2017-12-02T18:47:30.506Z,3.01
2017-12-02T18:49:59.648Z,3.03
2017-12-02T18:52:29.143Z,3.01
2017-12-02T18:54:58.701Z,3.01
2017-12-02T18:57:28.475Z,3.00
2017-12-02T18:59:57.599Z,3.03
2017-12-02T19:02:26.911Z,3.06
2017-12-02T19:04:58.371Z,3.05
2017-12-02T19:07:27.511Z,3.09
2017-12-02T19:09:56.590Z,3.14
2017-12-02T19:12:25.754Z,3.13
2017-12-02T19:14:55.651Z,3.17
2017-12-02T19:17:24.769Z,3.19
2017-12-02T19:19:53.958Z,3.23
2017-12-02T19:22:23.195Z,3.23
2017-12-02T19:24:52.365Z,3.23
2017-12-02T19:27:22.615Z,3.11
2017-12-02T19:29:52.184Z,3.06
2017-12-02T19:32:21.344Z,3.04
2017-12-02T19:34:51.643Z,3.04
2017-12-02T19:37:21.222Z,3.03
2017-12-02T19:39:50.436Z,3.05
2017-12-02T19:42:21.684Z,3.06
2017-12-02T19:44:52.014Z,3.05
2017-12-02T19:47:21.205Z,3.03
2017-12-02T19:49:50.350Z,2.98
2017-12-02T19:52:19.642Z,2.98
2017-12-02T19:54:48.905Z,2.99
2017-12-02T19:57:18.199Z,3.02
2017-12-02T19:59:48.300Z,3.05
2017-12-02T20:02:17.493Z,3.07
2017-12-02T20:04:46.698Z,3.11
2017-12-02T20:07:16.000Z,3.13
2017-12-02T20:09:45.253Z,3.13
2017-12-02T20:12:14.591Z,3.12
2017-12-02T20:14:45.412Z,3.12
2017-12-02T20:17:15.442Z,3.12
2017-12-02T20:19:47.074Z,3.11
2017-12-02T20:22:16.760Z,3.12
2017-12-02T20:24:47.149Z,3.13
2017-12-02T20:27:18.824Z,3.07
2017-12-02T20:29:48.532Z,3.05
2017-12-02T20:32:18.459Z,3.05
2017-12-02T20:34:48.876Z,3.04
2017-12-02T20:37:18.648Z,3.04
2017-12-02T20:39:49.242Z,3.06
2017-12-02T20:42:19.066Z,3.01
2017-12-02T20:44:49.398Z,3.00
2017-12-02T20:47:19.153Z,2.96
2017-12-02T20:49:49.083Z,2.99
2017-12-02T20:52:19.665Z,3.03
2017-12-02T20:54:50.256Z,3.02
2017-12-02T20:57:20.001Z,2.97
2017-12-02T20:59:50.893Z,2.93
2017-12-02T21:02:21.371Z,2.96
2017-12-02T21:04:52.037Z,2.92
2017-12-02T21:07:22.943Z,2.90
2017-12-02T21:09:53.714Z,2.87
2017-12-02T21:12:23.588Z,2.85
2017-12-02T21:14:53.186Z,2.89
2017-12-02T21:17:23.214Z,2.89
2017-12-02T21:19:55.006Z,2.93
2017-12-02T21:22:26.104Z,2.93
2017-12-02T21:24:55.848Z,2.94
2017-12-02T21:27:25.525Z,2.95
2017-12-02T21:29:55.221Z,2.94
2017-12-02T21:32:25.984Z,2.95
2017-12-02T21:34:55.377Z,2.93
2017-12-02T21:37:24.887Z,2.93
2017-12-02T21:39:54.629Z,2.97
2017-12-02T21:42:24.344Z,3.00
2017-12-02T21:44:55.061Z,2.91
2017-12-02T21:47:24.901Z,2.90
2017-12-02T21:49:54.561Z,2.86
2017-12-02T21:52:24.175Z,2.88
2017-12-02T21:54:54.472Z,2.78
2017-12-02T21:57:24.142Z,2.84
2017-12-02T21:59:54.177Z,2.86
2017-12-02T22:02:24.836Z,2.88
2017-12-02T22:04:54.545Z,2.91
2017-12-02T22:07:25.108Z,2.96
2017-12-02T22:09:55.014Z,3.01
2017-12-02T22:12:25.411Z,3.02
2017-12-02T22:14:56.049Z,3.01
2017-12-02T22:17:25.784Z,2.99
2017-12-02T22:19:57.941Z,2.98
2017-12-02T22:22:29.051Z,2.99
2017-12-02T22:24:59.489Z,3.00
2017-12-02T22:27:29.881Z,3.03
2017-12-02T22:29:59.653Z,3.00
2017-12-02T22:32:29.765Z,3.00
2017-12-02T22:35:01.091Z,3.02
2017-12-02T22:37:31.196Z,2.96
2017-12-02T22:40:00.789Z,2.88
2017-12-02T22:42:30.385Z,2.84
2017-12-02T22:45:00.033Z,2.82
2017-12-02T22:47:29.609Z,2.85
2017-12-02T22:50:00.586Z,2.88
2017-12-02T22:52:31.332Z,2.94
2017-12-02T22:55:01.608Z,2.96
2017-12-02T22:57:31.159Z,3.01
2017-12-02T23:00:02.307Z,3.03
2017-12-02T23:02:31.922Z,3.00
2017-12-02T23:05:01.706Z,2.98
2017-12-02T23:07:32.648Z,2.96
2017-12-02T23:10:02.355Z,2.92
2017-12-02T23:12:31.848Z,2.91
2017-12-02T23:15:01.553Z,2.92
2017-12-02T23:17:31.079Z,2.87
2017-12-02T23:20:00.891Z,2.85
2017-12-02T23:22:33.275Z,2.89
2017-12-02T23:25:03.124Z,2.91
2017-12-02T23:27:32.894Z,2.92
2017-12-02T23:30:02.549Z,2.92
2017-12-02T23:32:32.156Z,2.90
2017-12-02T23:35:01.843Z,2.90
2017-12-02T23:37:32.028Z,2.94
2017-12-02T23:40:01.491Z,2.90
2017-12-02T23:42:31.182Z,2.88
2017-12-02T23:45:03.607Z,2.80
2017-12-02T23:47:33.227Z,2.82
2017-12-02T23:50:04.483Z,2.74
2017-12-02T23:52:35.667Z,2.75
2017-12-02T23:55:06.735Z,2.72
2017-12-02T23:57:36.397Z,2.74
